• Join FlightAware (Why Join?)
  • Login
  • US Flag 
03:36AM EDT


 

Airport Tracker/Info


-or-


 

Live Flight TrackerFlight Track Log ✈ SWA253 ✈ 05-Jul-2013 ✈ KLAX - KDEN

Flight Track Log - Related Links

Times and Time Zones

All times are in EDT time to prevent confusion due to time zone crossing. See the SWA253 flight status page for this flight to view local times or setup timezone preferences in your user account.

Time Position Orientation Groundspeed Altitude Reporting Facility
EDT Latitude Longitude Course Direction KTS MPH feet Rate Location/Type
09:12AM 33.9450 -118.4380 240° Southwest 159 183 1,200  Level FlightAware
09:12AM 33.9370 -118.4480 226° Southwest 173 199 1,600 1,380 Climbing FlightAware
09:12AM 33.9280 -118.4580 223° Southwest 194 223 1,900 1,020 Climbing FlightAware
09:13AM 33.9167 -118.4667 90° East 210 242 2,300 1,680 Climbing Southern California TRACON
09:13AM 33.9060 -118.4760 214° Southwest 223 257 2,700 2,580 Climbing FlightAware
09:13AM 33.8770 -118.4840 193° South 243 280 3,700 1,740 Climbing FlightAware
09:14AM 33.8508 -118.4900 196° South 242 278 4,300 1,920 Climbing Los Angeles Center
09:14AM 33.8420 -118.4920 191° South 270 311 4,600 2,880 Climbing FlightAware
09:14AM 33.8090 -118.4980 189° South 281 323 5,700 2,640 Climbing FlightAware
09:15AM 33.7780 -118.5040 189° South 287 330 6,900 2,700 Climbing FlightAware
09:15AM 33.7700 -118.5064 190° South 278 320 7,100 3,180 Climbing Los Angeles Center
09:15AM 33.7390 -118.5120 190° South 288 331 8,400 2,940 Climbing FlightAware
09:16AM 33.6953 -118.4942 172° South 291 335 10,100 1,980 Climbing Los Angeles Center
09:17AM 33.6603 -118.3989 114° Southeast 325 374 11,700 2,160 Climbing Los Angeles Center
09:18AM 33.6333 -118.2205 90° East  Level FlightAware Approximate
09:22AM 34.0360 -117.8370 114° Southeast 446 513 24,500  Level FlightAware
09:23AM 34.0970 -117.7680 43° Northeast 451 519 25,700 1,800 Climbing FlightAware
09:24AM 34.1530 -117.6910 49° Northeast 457 526 26,900 1,620 Climbing FlightAware
09:24AM 34.2210 -117.6000 48° Northeast 465 535 28,100 1,380 Climbing FlightAware
09:25AM 34.2790 -117.5210 48° Northeast 474 545 29,000 1,260 Climbing FlightAware
09:26AM 34.3400 -117.4380 48° Northeast 481 554 29,900 1,380 Climbing FlightAware
09:26AM 34.3930 -117.3660 48° Northeast 483 556 30,800 1,560 Climbing FlightAware
09:27AM 34.4540 -117.2830 48° Northeast 481 554 31,900 1,560 Climbing FlightAware
09:28AM 34.5140 -117.2000 49° Northeast 476 548 33,000 1,560 Climbing FlightAware
09:28AM 34.5710 -117.1200 49° Northeast 475 547 34,000 1,380 Climbing FlightAware
09:29AM 34.6250 -117.0440 49° Northeast 475 547 34,800 1,080 Climbing FlightAware
09:30AM 34.6880 -116.9550 49° Northeast 476 548 35,500 1,020 Climbing FlightAware
09:30AM 34.7320 -116.8620 60° Northeast 475 547 36,300 1,080 Climbing FlightAware
09:31AM 34.7740 -116.7650 62° Northeast 474 545 37,000 480 Climbing FlightAware
09:32AM 34.8200 -116.6580 62° Northeast 475 547 37,000  Level FlightAware
09:33AM 34.8620 -116.5620 62° Northeast 474 545 37,000  Level FlightAware
09:33AM 34.9060 -116.4600 62° Northeast 472 543 37,000  Level FlightAware
09:34AM 34.9490 -116.3620 62° Northeast 470 541 37,000  Level FlightAware
09:35AM 34.9930 -116.2590 62° Northeast 467 537 37,000  Level FlightAware
09:35AM 35.0330 -116.1670 62° Northeast 467 537 37,000  Level FlightAware
09:36AM 35.0720 -116.0740 63° Northeast 466 536 37,000  Level FlightAware
09:37AM 35.1120 -115.9820 62° Northeast 466 536 37,000  Level FlightAware
09:38AM 35.1580 -115.8730 63° Northeast 467 537 37,000  Level FlightAware
09:38AM 35.2010 -115.7700 63° Northeast 469 540 37,000  Level FlightAware
09:39AM 35.2440 -115.6700 62° Northeast 470 541 37,000  Level FlightAware
09:40AM 35.2840 -115.5740 63° Northeast 471 542 37,000  Level FlightAware
09:40AM 35.3210 -115.4870 62° Northeast 472 543 37,000  Level FlightAware
09:41AM 35.3690 -115.3730 63° Northeast 472 543 37,000  Level FlightAware
09:42AM 35.4080 -115.2800 63° Northeast 472 543 37,000  Level FlightAware
09:42AM 35.4530 -115.1700 63° Northeast 471 542 37,000  Level FlightAware
09:43AM 35.4910 -115.0800 63° Northeast 470 541 37,000  Level FlightAware
09:44AM 35.5320 -114.9780 64° Northeast 470 541 37,000  Level FlightAware
09:44AM 35.5670 -114.8920 63° Northeast 469 540 37,000  Level FlightAware
09:45AM 35.6090 -114.7920 63° Northeast 469 540 37,000  Level FlightAware
09:46AM 35.6480 -114.6970 63° Northeast 467 537 37,000  Level FlightAware
09:46AM 35.6830 -114.6120 63° Northeast 467 537 37,000  Level FlightAware
09:47AM 35.7260 -114.5080 63° Northeast 468 539 37,000  Level FlightAware
09:48AM 35.7660 -114.4090 64° Northeast 468 539 37,000  Level FlightAware
09:48AM 35.8040 -114.3150 63° Northeast 468 539 37,000  Level FlightAware
09:49AM 35.8460 -114.2110 63° Northeast 468 539 37,000  Level FlightAware
09:50AM 35.8830 -114.1180 64° Northeast 468 539 37,000  Level FlightAware
09:51AM 35.9260 -114.0120 63° Northeast 468 539 37,000  Level FlightAware
09:51AM 35.9660 -113.9120 64° Northeast 467 537 37,000  Level FlightAware
09:52AM 36.0070 -113.8080 64° Northeast 468 539 37,000  Level FlightAware
09:53AM 36.0450 -113.7130 64° Northeast 468 539 37,000  Level FlightAware
09:53AM 36.0840 -113.6170 63° Northeast 468 539 37,000  Level FlightAware
09:54AM 36.1350 -113.4880 64° Northeast 470 541 37,000  Level FlightAware
09:55AM 36.1750 -113.3860 64° Northeast 470 541 37,000  Level FlightAware
09:56AM 36.2130 -113.2880 64° Northeast 470 541 37,000  Level FlightAware
09:56AM 36.2450 -113.2060 64° Northeast 470 541 37,000  Level FlightAware
09:57AM 36.2850 -113.1060 64° Northeast 469 540 37,000  Level FlightAware
09:58AM 36.3270 -112.9980 64° Northeast 469 540 37,000  Level FlightAware
09:58AM 36.3580 -112.9170 65° Northeast 467 537 37,000  Level FlightAware
09:59AM 36.3940 -112.8250 64° Northeast 466 536 37,000  Level FlightAware
10:00AM 36.4380 -112.7100 65° Northeast 466 536 37,000  Level FlightAware
10:00AM 36.4720 -112.6230 64° Northeast 468 539 37,000  Level FlightAware
10:01AM 36.5050 -112.5350 65° Northeast 468 539 37,000  Level FlightAware
10:02AM 36.5480 -112.4220 65° Northeast 468 539 37,000  Level FlightAware
10:02AM 36.5820 -112.3340 64° Northeast 467 537 37,000  Level FlightAware
10:03AM 36.6180 -112.2380 65° Northeast 468 539 37,000  Level FlightAware
10:03AM 36.6480 -112.1600 64° Northeast 468 539 37,000  Level FlightAware
10:04AM 36.6900 -112.0490 65° Northeast 466 536 37,000  Level FlightAware
10:05AM 36.7290 -111.9460 65° Northeast 465 535 37,000  Level FlightAware
10:05AM 36.7570 -111.8700 65° Northeast 465 535 37,000  Level FlightAware
10:06AM 36.7970 -111.7650 65° Northeast 464 534 37,000  Level FlightAware
10:07AM 36.8340 -111.6650 65° Northeast 465 535 37,000  Level FlightAware
10:07AM 36.8760 -111.5590 64° Northeast 470 541 37,000 540 Level FlightAware
10:08AM 36.9180 -111.4590 62° Northeast 469 540 37,800 1,020 Climbing FlightAware
10:09AM 36.9600 -111.3590 62° Northeast 466 536 38,500 780 Climbing FlightAware
10:10AM 37.0050 -111.2540 62° Northeast 466 536 39,000 300 Climbing FlightAware
10:10AM 37.0460 -111.1550 63° Northeast 466 536 39,000  Level FlightAware
10:11AM 37.1000 -111.0250 62° Northeast 467 537 39,000  Level FlightAware
10:12AM 37.1380 -110.9330 63° Northeast 466 536 39,000  Level FlightAware
10:12AM 37.1740 -110.8460 63° Northeast 466 536 39,000  Level FlightAware
10:13AM 37.2130 -110.7520 62° Northeast 464 534 39,000  Level FlightAware
10:14AM 37.2540 -110.6560 62° Northeast 464 534 39,000  Level FlightAware
10:15AM 37.2950 -110.5590 62° Northeast 464 534 39,000  Level FlightAware
10:15AM 37.3430 -110.4360 64° Northeast 462 532 39,000  Level FlightAware
10:16AM 37.3800 -110.3460 63° Northeast 463 533 39,000  Level FlightAware
10:17AM 37.4220 -110.2430 63° Northeast 462 532 39,000  Level FlightAware
10:17AM 37.4640 -110.1390 63° Northeast 464 534 39,000  Level FlightAware
10:18AM 37.5060 -110.0340 63° Northeast 464 534 39,000  Level FlightAware
10:19AM 37.5470 -109.9310 63° Northeast 465 535 39,000  Level FlightAware
10:20AM 37.5880 -109.8300 63° Northeast 466 536 39,000  Level FlightAware
10:20AM 37.6280 -109.7300 63° Northeast 465 535 39,000  Level FlightAware
10:21AM 37.6670 -109.6320 63° Northeast 465 535 39,000  Level FlightAware
10:21AM 37.6960 -109.5590 63° Northeast 465 535 39,000  Level FlightAware
10:22AM 37.7370 -109.4560 63° Northeast 464 534 39,000  Level FlightAware
10:23AM 37.7780 -109.3510 64° Northeast 463 533 39,000  Level FlightAware
10:24AM 37.8170 -109.2530 63° Northeast 466 536 39,000  Level FlightAware
10:24AM 37.8550 -109.1550 64° Northeast 467 537 39,000  Level FlightAware
10:25AM 37.8950 -109.0520 64° Northeast 467 537 39,000  Level FlightAware
10:26AM 37.9370 -108.9460 63° Northeast 463 533 39,000  Level FlightAware
10:26AM 37.9680 -108.8670 64° Northeast 462 532 39,000  Level FlightAware
10:27AM 38.0090 -108.7600 64° Northeast 463 533 39,000  Level FlightAware
10:28AM 38.0470 -108.6610 64° Northeast 463 533 39,000  Level FlightAware
10:28AM 38.0820 -108.5710 64° Northeast 461 531 39,000  Level FlightAware
10:29AM 38.1220 -108.4680 64° Northeast 460 529 39,000  Level FlightAware
10:30AM 38.1600 -108.3680 64° Northeast 460 529 39,000  Level FlightAware
10:30AM 38.1970 -108.2720 64° Northeast 462 532 39,000  Level FlightAware
10:31AM 38.2370 -108.1660 64° Northeast 462 532 39,000  Level FlightAware
10:32AM 38.2750 -108.0640 65° Northeast 463 533 39,000  Level FlightAware
10:32AM 38.3170 -107.9540 64° Northeast 464 534 39,000  Level FlightAware
10:33AM 38.3510 -107.8630 65° Northeast 464 534 39,000  Level FlightAware
10:34AM 38.3840 -107.7750 64° Northeast 462 532 39,000  Level FlightAware
10:34AM 38.4270 -107.6610 64° Northeast 459 528 39,000  Level FlightAware
10:35AM 38.4600 -107.5770 63° Northeast 456 525 39,000  Level FlightAware
10:36AM 38.5040 -107.4790 60° Northeast 456 525 39,000  Level FlightAware
10:36AM 38.5480 -107.3810 60° Northeast 455 524 39,000  Level FlightAware
10:37AM 38.5890 -107.2890 60° Northeast 455 524 39,000  Level FlightAware
10:38AM 38.6290 -107.1980 61° Northeast 454 522 39,000  Level FlightAware
10:38AM 38.6700 -107.1070 60° Northeast 450 518 39,000 -660 Level FlightAware
10:39AM 38.7200 -106.9950 60° Northeast 446 513 38,100 -1,080 Descending FlightAware
10:40AM 38.7560 -106.9130 61° Northeast 445 512 37,500 -1,020 Descending FlightAware
10:40AM 38.7980 -106.8160 61° Northeast 450 518 36,800 -1,020 Descending FlightAware
10:41AM 38.8420 -106.7170 60° Northeast 449 517 36,100 -1,020 Descending FlightAware
10:42AM 38.8810 -106.6300 60° Northeast 450 518 35,500 -960 Descending FlightAware
10:42AM 38.9230 -106.5390 59° Northeast 445 512 34,900 -1,020 Descending FlightAware
10:43AM 38.9680 -106.4430 59° Northeast 448 516 34,200 -1,020 Descending FlightAware
10:44AM 39.0090 -106.3550 59° Northeast 451 519 33,600 -1,140 Descending FlightAware
10:44AM 39.0540 -106.2540 60° Northeast 449 517 32,700 -1,920 Descending FlightAware
10:45AM 39.1000 -106.1520 60° Northeast 448 516 30,800 -1,800 Descending FlightAware
10:46AM 39.1520 -106.0360 60° Northeast 447 514 29,800 -720 Descending FlightAware
10:47AM 39.1840 -105.9650 60° Northeast 447 514 29,800  Level FlightAware
10:47AM 39.2150 -105.8940 61° Northeast 447 514 29,800  Level FlightAware
10:48AM 39.2580 -105.8000 59° Northeast 447 514 29,800 -3,720 Level FlightAware
10:49AM 39.3060 -105.6860 61° Northeast 410 472 24,200 -5,880 Descending FlightAware
10:49AM 39.3380 -105.6120 61° Northeast 388 447 22,600 -2,160 Descending FlightAware
10:50AM 39.3780 -105.5220 60° Northeast 375 432 21,500 -1,260 Descending FlightAware
10:51AM 39.4100 -105.4530 59° Northeast 353 406 20,900 -1,260 Descending FlightAware
10:51AM 39.4500 -105.3770 56° Northeast 345 397 19,800 -1,560 Descending FlightAware
10:52AM 39.4880 -105.3050 56° Northeast 339 390 18,700 -1,620 Descending FlightAware
10:53AM 39.5260 -105.2320 56° Northeast 335 386 17,500 -1,440 Descending FlightAware
10:54AM 39.5600 -105.1660 56° Northeast 331 381 16,700 -1,500 Descending FlightAware
10:54AM 39.5970 -105.0920 57° Northeast 333 383 15,400 -1,740 Descending FlightAware
10:55AM 39.6300 -105.0250 57° Northeast 331 381 14,300 -1,560 Descending FlightAware
10:56AM 39.6640 -104.9450 61° Northeast 326 375 13,200 -1,020 Descending FlightAware
10:56AM 39.6800 -104.8770 73° East 320 368 12,900 -240 Descending FlightAware
10:57AM 39.6980 -104.7970 74° East 293 337 12,900 -240 Level FlightAware
10:58AM 39.7170 -104.7310 69° East 269 310 12,600 -720 Descending FlightAware
10:58AM 39.7370 -104.6810 63° Northeast 261 300 12,000 -1,080 Descending FlightAware
10:59AM 39.7510 -104.6190 74° East 267 307 11,200 -840 Descending FlightAware
11:00AM 39.7500 -104.5580 91° East 264 304 10,900 -540 Descending FlightAware
11:01AM 39.7490 -104.4870 91° East 256 295 10,500 -780 Descending FlightAware
11:01AM 39.7490 -104.4250 90° East 255 293 9,800 -1,080 Descending FlightAware
11:01AM 39.7540 -104.4020 74° East 255 293 9,500 -1,080 Descending FlightAware
11:02AM 39.7640 -104.3890 45° Northeast 250 288 9,300 -900 Descending FlightAware
11:02AM 39.7790 -104.3820 20° North 244 281 9,100 -960 Descending FlightAware
11:02AM 39.8090 -104.3740 12° North 243 280 8,600 -1,020 Descending FlightAware
11:03AM 39.8500 -104.3810 353° North 235 270 8,000 -600 Descending FlightAware
11:03AM 39.8730 -104.4000 328° Northwest 226 260 8,000  Level FlightAware
11:04AM 39.8790 -104.4140 299° West 225 259 8,000 -480 Level FlightAware
11:04AM 39.8770 -104.4540 266° West 230 265 7,700 -840 Descending FlightAware
11:05AM 39.8760 -104.4930 268° West 231 266 7,200 -1,080 Descending FlightAware
11:05AM 39.8760 -104.5110 270° West 222 255 7,000 -1,200 Descending FlightAware
11:05AM 39.8760 -104.5480 270° West 199 229 6,400 -1,140 Descending FlightAware
11:06AM 39.8770 -104.5750 273° West 176 203 6,000 -1,080 Descending FlightAware
11:06AM 39.8770 -104.5920 270° West 166 191 5,700 -1,080 Descending FlightAware
11:08AM 39.8780 -104.6610 271° West 26 30 -3,420 Descending FlightAware
11:08AM 39.8780 -104.6640 270° West 26 30  Level FlightAware
11:15AM 39.8617 -104.6732 180° South  Level Estimated
11:16AM 39.8617 -104.6732 180° South  Level Estimated
11:17AM 39.8617 -104.6732 180° South  Level Estimated